Tiempo atmosférico en la estación meteorológica de Rascafría, Madrid (1159 m.)



Fecha
DESCASC
Temp. máxima en grados centígrados (hora)
DESCASC
Temp. mínima en grados centígrados (hora)
DESCASC
Temp. media en grados centígrados
DESCASC
Racha de viento máxima en m/sg (hora)
DESCASC
Velocidad máxima media en intervalos de 10 minutos(hora)
DESCASC
Precipitaciones diarias en mm
DESCASC
Precipitaciones de 00:00 a 06:00 en mm
DESCASC
Precipitaciones de 06:00 a 12:00 en mm
DESCASC
Precipitaciones de 12:00 a 18:00 en mm
DESCASC
Precipitaciones de 18:00 a 24:00 en mm
DESCASC
17-09-2020 21.8 (14:10) 12.3 (05:40) 17 7.22 (16:20) 3.33 (15:00) 28.2 1.4 0.8 0 26
16-09-2020 27.1 (16:30) 8.3 (07:50) 17.7 7.22 (15:30) 2.78 (16:20) 1 0 0 0 1
15-09-2020 25.9 (16:30) 10.3 (23:59) 18.1 7.22 (16:10) 3.06 (16:00) 5.4 5.4 0 0 0
14-09-2020 24.2 (17:40) 9.4 (00:00) 16.8 4.72 (23:00) 1.67 (17:40) 0 0 0 0 0
13-09-2020 29.2 (16:20) 8 (00:00) 18.6 9.72 (16:30) 3.61 (14:40) 0 0 0 0 0
12-09-2020 30.6 (16:50) 6.7 (00:00) 18.7 5 (14:20) 2.22 (14:00) 0 0 0 0 0
11-09-2020 28.8 (17:00) 6 (00:00) 17.4 5.56 (14:50) 2.22 (14:50) 0 0 0 0 0
10-09-2020 27.8 (17:10) 5.5 (00:00) 16.6 4.72 (14:20) 1.94 (13:50) 0 0 0 0 0
09-09-2020 26.3 (14:40) 3.4 (00:00) 14.8 5.56 (14:10) 1.94 (14:20) 0 0 0 0 0
08-09-2020 24.3 (18:00) 1.7 (00:00) 13 5.56 (14:00) 2.22 (14:50) 0 0 0 0 0
07-09-2020 25 (16:30) 6.7 (07:10) 15.8 7.22 (09:10) 2.78 (08:50) 0 0 0 0 0
06-09-2020 29.1 (16:20) 8.5 (00:00) 18.8 7.5 (17:30) 2.78 (14:50) 0 0 0 0 0
05-09-2020 31.8 (16:30) 7.1 (00:00) 19.4 5 (16:40) 1.94 (16:20) 0 0 0 0 0
04-09-2020 30.8 (17:10) 6.2 (00:00) 18.5 6.11 (17:10) 2.5 (15:30) 0 0 0 0 0
03-09-2020 30 (17:20) 4.4 (00:00) 17.2 5 (15:50) 2.22 (14:20) 0 0 0 0 0
02-09-2020 26.9 (16:50) 3.6 (00:00) 15.2 5.83 (17:40) 2.5 (12:50) 0 0 0 0 0
01-09-2020 25.2 (17:30) 6.6 (00:00) 15.9 5.56 (15:00) 2.22 (15:00) 0 0 0 0 0
31-08-2020 23.5 (16:40) -0.4 (00:00) 11.5 6.11 (15:30) 2.22 (15:20) 0 0 0 0 0
30-08-2020 17.2 (18:10) 0.9 (00:00) 9.1 7.22 (14:10) 2.5 (14:10) 0 0 0 0 0
29-08-2020 18.5 (17:00) 6.4 (00:00) 12.5 10.28 (15:00) 3.06 (16:20) 1.4 0 0 1 0.4
28-08-2020 25.5 (15:30) 15.3 (00:00) 20.4 11.39 (15:00) 4.72 (15:40) 0 0 0 0 0
27-08-2020 32.4 (15:40) 11.6 (00:00) 22 8.33 (16:30) 3.06 (18:20) 0 0 0 0 0
26-08-2020 33.9 (17:40) 9.4 (00:00) 21.7 7.22 (12:50) 2.78 (12:00) 0 0 0 0 0
25-08-2020 33.2 (16:40) 9 (00:00) 21.1 5.56 (13:00) 2.5 (13:00) 0 0 0 0 0
24-08-2020 30.9 (16:40) 6.7 (00:00) 18.8 6.67 (15:30) 2.5 (14:30) 0 0 0 0 0
23-08-2020 29.9 (17:40) 7.7 (00:00) 18.8 5.56 (19:20) 2.22 (16:20) 0 0 0 0 0
22-08-2020 29.3 (15:50) 7.6 (00:00) 18.4 7.5 (15:00) 2.78 (16:20) 0 0 0 0 0
21-08-2020 29.9 (15:50) 9.2 (00:00) 19.5 8.89 (17:20) 3.33 (19:00) 0.2 0 0 0.2 0

Gráficas

Temp. máximas Temp. mínimas Temp. medias Precipitaciones Rachas de viento máximas Velocidades máximas media en intervalos de 10 minutos

Datos horarios

Fecha y hora oficial Temperatura (ºC) Velocidad del viento (km/h) Dirección del viento Racha (km/h) Dirección de racha Precipitación (mm) Presión (hPa) Tendencia (hPa) Humedad (%)
2020-09-19 23:00:00 12.1 0 Calma 4 Noroeste 0.2 -- -- 91
2020-09-19 22:00:00 13.3 0 Calma 18 Noroeste 0 -- -- 79
2020-09-19 21:00:00 14 5 Oeste 25 Oeste 0 -- -- 68
2020-09-19 20:00:00 15 3 Sudoeste 15 Oeste 0 -- -- 70
2020-09-19 19:00:00 15.6 3 Noroeste 24 Oeste 0.2 -- -- 66
2020-09-19 18:00:00 16.8 10 Oeste 33 Oeste 0 -- -- 62
2020-09-19 17:00:00 19.3 6 Sudoeste 26 Oeste 0 -- -- 58
2020-09-19 16:00:00 17.3 5 Sudoeste 33 Oeste 0 -- -- 65
2020-09-19 15:00:00 15.7 9 Oeste 27 Noroeste 0.2 -- -- 75
2020-09-19 14:00:00 16.8 8 Oeste 34 Noroeste 0 -- -- 66
2020-09-19 13:00:00 15.9 12 Oeste 34 Sudoeste 0 -- -- 68
2020-09-19 12:00:00 14.8 10 Oeste 32 Oeste 0 -- -- 76
2020-09-19 11:00:00 13.7 8 Oeste 25 Noroeste 0 -- -- 86
2020-09-19 10:00:00 12.3 2 Nordeste 6 Nordeste 0 -- -- 95
2020-09-19 09:00:00 11.2 0 Calma 6 Oeste 0.2 -- -- 97
2020-09-19 08:00:00 10.6 3 Oeste 6 Este 0 -- -- 97
2020-09-19 07:00:00 10.8 3 Sur 7 Nordeste 0.2 -- -- 96
2020-09-19 06:00:00 10.7 3 Nordeste 8 Norte 0.6 -- -- 95
2020-09-19 05:00:00 10.9 3 Sudoeste 12 Oeste 0.6 -- -- 92
2020-09-19 04:00:00 10.9 2 Noroeste 6 Norte 0 -- -- 96
2020-09-19 03:00:00 11.2 2 Norte 8 Norte 0.8 -- -- 97
2020-09-19 02:00:00 11.2 0 Calma 5 Noroeste 4 -- -- 97
2020-09-19 01:00:00 11.2 2 Sudoeste 10 Nordeste 5.4 -- -- 97
2020-09-19 00:00:00 11 4 Norte 10 Nordeste 0.6 -- -- 97
2020-09-18 23:00:00 10.5 0 Calma 4 Sur 0 -- -- 97
2020-09-18 22:00:00 9.9 0 Calma 6 Sur 0 -- -- 97
2020-09-18 21:00:00 9.6 2 Noroeste 7 Sur 0 -- -- 95
2020-09-18 20:00:00 10.7 0 Calma 6 Sur 0.2 -- -- 93
2020-09-18 19:00:00 11.5 4 Norte 10 Oeste 5.4 -- -- 92
2020-09-18 18:00:00 13.1 0 Calma 12 Nordeste 0.8 -- -- 93
2020-09-18 17:00:00 13.5 0 Calma 19 Sur 5.2 -- -- 90
2020-09-18 16:00:00 17 4 Sudeste 20 Sur 0 -- -- 67
2020-09-18 15:00:00 18.2 5 Sudeste 23 Sur 0 -- -- 65
2020-09-18 14:00:00 16.5 4 Sur 25 Sur 0 -- -- 72
2020-09-18 13:00:00 16.9 5 Sudeste 12 Sudeste 0 -- -- 69
2020-09-18 12:00:00 15.4 3 Sudeste 11 Sur 0.4 -- -- 83
2020-09-18 11:00:00 15 4 Sudoeste 12 Sur 0.2 -- -- 85
2020-09-18 10:00:00 14.3 3 Noroeste 20 Sudoeste 0.6 -- -- 88
2020-09-18 09:00:00 14.7 4 Sur 18 Sur 0 -- -- 78
2020-09-18 08:00:00 14.2 3 Sur 21 Sur 0 -- -- 84
2020-09-18 07:00:00 14.1 5 Sur 17 Sudeste 0 -- -- 87
2020-09-18 06:00:00 14 4 Sur 11 Sudeste 0 -- -- 92
2020-09-18 05:00:00 14.2 2 Norte 11 Norte 2.6 -- -- 95
2020-09-18 04:00:00 14 8 Nordeste 18 Norte 1.4 -- -- 97
2020-09-18 03:00:00 13.7 3 Nordeste 10 Norte 0.8 -- -- 97
2020-09-18 02:00:00 13.3 0 Calma 6 Este 10.6 -- -- 97
2020-09-18 01:00:00 13.3 2 Noroeste 10 Este 0.4 -- -- 96
2020-09-18 00:00:00 13.4 6 Nordeste 14 Norte 7 -- -- 96
2020-09-17 23:00:00 13.3 0 Calma 7 Oeste 0.8 -- -- 95
2020-09-17 22:00:00 13.3 3 Sur 20 Sudeste 9.2 -- -- 93
2020-09-17 21:00:00 15.5 4 Sudoeste 19 Sur 9 -- -- 89
2020-09-17 20:00:00 18.3 3 Sur 17 Sudeste 0 -- -- 71
2020-09-17 19:00:00 19.6 3 Norte 21 Este 0 -- -- 66
2020-09-17 18:00:00 20.8 4 Sudoeste 24 Sur 0 -- -- 61
2020-09-17 17:00:00 19.5 12 Sudeste 26 Sudeste 0 -- -- 66
2020-09-17 16:00:00 20 10 Sudeste 24 Este 0 -- -- 61
2020-09-17 15:00:00 21.3 12 Sudeste 25 Este 0 -- -- 58
2020-09-17 14:00:00 21.2 6 Sudeste 16 Sudeste 0 -- -- 59
2020-09-17 13:00:00 18.6 5 Nordeste 25 Este 0 -- -- 78
2020-09-17 12:00:00 17.8 6 Este 16 Este 0 -- -- 78
2020-09-17 11:00:00 15.6 3 Norte 8 Nordeste 0 -- -- 92
2020-09-17 10:00:00 14.1 3 Norte 9 Nordeste 0.6 -- -- 95
2020-09-17 09:00:00 13.5 2 Norte 8 Sur 0.2 -- -- 96
2020-09-17 08:00:00 12.8 2 Noroeste 6 Este 0 -- -- 97
2020-09-17 07:00:00 12.4 0 Calma 8 Sur 0 -- -- 96
2020-09-17 06:00:00 12.4 3 Oeste 7 Sudoeste 0 -- -- 96
2020-09-17 05:00:00 12.8 0 Calma 5 Sur 0.2 -- -- 95
2020-09-17 04:00:00 13.3 2 Oeste 6 Oeste 0 -- -- 95
2020-09-17 03:00:00 13.6 3 Sudoeste 7 Este 0 -- -- 93
2020-09-17 02:00:00 13.7 0 Calma 6 Sudoeste 0 -- -- 94
2020-09-17 01:00:00 14.2 0 Calma 7 Sur 1.2 -- -- 92
2020-09-17 00:00:00 15.3 2 Sudoeste 16 Sur 1 -- -- 87
2020-09-16 23:00:00 15.1 0 Calma 4 Oeste 0 -- -- 76
2020-09-16 22:00:00 15.4 0 Calma 4 Sur 0 -- -- 74
2020-09-16 21:00:00 17 0 Calma 6 Sur 0 -- -- 69
2020-09-16 20:00:00 20.7 0 Calma 10 Sudeste 0 -- -- 56
2020-09-16 19:00:00 24.8 5 Sur 18 Sudeste 0 -- -- 38
2020-09-16 18:00:00 26.7 6 Sur 20 Sur 0 -- -- 35
2020-09-16 17:00:00 27 6 Sur 25 Sur 0 -- -- 33
2020-09-16 16:00:00 26.1 7 Sudeste 26 Sur 0 -- -- 38
2020-09-16 15:00:00 26.5 8 Sur 22 Sur 0 -- -- 40
2020-09-16 14:00:00 25.8 7 Sur 25 Sur 0 -- -- 40
2020-09-16 13:00:00 24.1 3 Nordeste 9 Nordeste 0 -- -- 49
2020-09-16 12:00:00 22.6 3 Sudeste 9 Este 0 -- -- 51
2020-09-16 11:00:00 19.5 3 Nordeste 5 Este 0 -- -- 60
2020-09-16 10:00:00 14.5 0 Calma 3 Sur 0 -- -- 86
2020-09-16 09:00:00 9.7 3 Sudoeste 5 Oeste 0 -- -- 97
2020-09-16 08:00:00 8.3 0 Calma 4 Sudoeste 0 -- -- 96
2020-09-16 07:00:00 8.6 3 Sudoeste 4 Oeste 0 -- -- 96
2020-09-16 06:00:00 9.1 2 Sudoeste 5 Sur 0 -- -- 96
2020-09-16 05:00:00 8.9 0 Calma 5 Oeste 0 -- -- 95
2020-09-16 04:00:00 8.9 3 Oeste 4 Sudoeste 0 -- -- 96
2020-09-16 03:00:00 8.9 0 Calma 4 Oeste 0 -- -- 94
2020-09-16 02:00:00 9.1 2 Sudoeste 4 Oeste 0 -- -- 93
2020-09-16 01:00:00 9.6 3 Sudoeste 5 Sudoeste 0 -- -- 91
2020-09-16 00:00:00 10.3 3 Sudoeste 4 Sudoeste 0 -- -- 88
2020-09-15 23:00:00 11 2 Sudoeste 7 Sur 0 -- -- 85
2020-09-15 22:00:00 12.4 2 Sudoeste 5 Noroeste 0 -- -- 83
2020-09-15 21:00:00 14.9 0 Calma 4 Oeste 0 -- -- 78
2020-09-15 20:00:00 19.2 0 Calma 17 Sur 0 -- -- 64
2020-09-15 19:00:00 23.5 5 Sur 18 Sudeste 0 -- -- 44
2020-09-15 18:00:00 24.9 6 Sur 20 Sur 0 -- -- 44
2020-09-15 17:00:00 25.5 9 Sur 26 Sur 0 -- -- 44
2020-09-15 16:00:00 25.5 11 Sur 24 Sur 0 -- -- 43
2020-09-15 15:00:00 25.1 9 Sur 24 Sur 0 -- -- 44
2020-09-15 14:00:00 22.8 5 Nordeste 17 Sudoeste 0 -- -- 56
2020-09-15 13:00:00 22 5 Este 11 Este 0 -- -- 66
2020-09-15 12:00:00 19.7 3 Este 8 Norte 0 -- -- 72
2020-09-15 11:00:00 18.5 0 Calma 6 Sudeste 0 -- -- 76
2020-09-15 10:00:00 15.8 0 Calma 4 Noroeste 0 -- -- 90
2020-09-15 09:00:00 12.2 2 Sudoeste 6 Sur 0 -- -- 97
2020-09-15 08:00:00 12 3 Oeste 8 Sur 0 -- -- 96
2020-09-15 07:00:00 12.1 2 Oeste 4 Oeste 0 -- -- 96
2020-09-15 06:00:00 12.7 2 Oeste 5 Noroeste 0.2 -- -- 95
2020-09-15 05:00:00 13.1 0 Calma 7 Sudeste 0 -- -- 95
2020-09-15 04:00:00 13.4 3 Oeste 10 Sudeste 3.6 -- -- 95
2020-09-15 03:00:00 12.8 0 Calma 6 Norte 1.6 -- -- 91
2020-09-15 02:00:00 13.3 0 Calma 8 Sudeste 0 -- -- 76
2020-09-15 01:00:00 14 0 Calma 5 Noroeste 0 -- -- 75
2020-09-15 00:00:00 14.7 2 Oeste 8 Norte 0 -- -- 70
2020-09-14 23:00:00 15.1 2 Sudeste 17 Sudoeste 0 -- -- 68
2020-09-14 22:00:00 15.3 0 Calma 5 Noroeste 0 -- -- 71
2020-09-14 21:00:00 16.9 0 Calma 6 Sur 0 -- -- 69
2020-09-14 20:00:00 19.9 0 Calma 5 Noroeste 0 -- -- 61
2020-09-14 19:00:00 21.3 0 Calma 11 Sudeste 0 -- -- 58
2020-09-14 18:00:00 23.7 5 Sudeste 14 Sur 0 -- -- 42
2020-09-14 17:00:00 23 2 Sudoeste 7 Este 0 -- -- 49
2020-09-14 16:00:00 23.3 4 Este 12 Este 0 -- -- 45
2020-09-14 15:00:00 21.7 3 Este 6 Sur 0 -- -- 52
2020-09-14 14:00:00 20.2 0 Calma 3 Este 0 -- -- 60
2020-09-14 13:00:00 20.7 0 Calma 4 Sudeste 0 -- -- 55
2020-09-14 12:00:00 20.5 2 Este 10 Nordeste 0 -- -- 54
2020-09-14 11:00:00 19.5 3 Este 6 Este 0 -- -- 59
2020-09-14 10:00:00 17.6 0 Calma 6 Sudeste 0 -- -- 67
2020-09-14 09:00:00 11.4 0 Calma 4 Sudoeste 0 -- -- 88
2020-09-14 08:00:00 9.5 0 Calma 8 Sur 0 -- -- 91
2020-09-14 07:00:00 9.7 3 Sudoeste 8 Sudoeste 0 -- -- 91
2020-09-14 06:00:00 10.6 3 Sudoeste 11 Sur 0 -- -- 86
2020-09-14 05:00:00 11.1 3 Sudoeste 10 Sur 0 -- -- 82
2020-09-14 04:00:00 11.6 2 Sur 6 Sudoeste 0 -- -- 80
2020-09-14 03:00:00 12.5 2 Norte 9 Sudoeste 0 -- -- 76
2020-09-14 02:00:00 11.6 0 Calma 10 Sudoeste 0 -- -- 76
2020-09-14 01:00:00 11.9 0 Calma 12 Sur 0 -- -- 70
2020-09-14 00:00:00 12.3 2 Sur 10 Sur 0 -- -- 69
2020-09-13 23:00:00 12.8 2 Sudoeste 6 Sur 0 -- -- 67
2020-09-13 22:00:00 14.6 0 Calma 6 Oeste 0 -- -- 61
2020-09-13 21:00:00 17.3 0 Calma 5 Sudoeste 0 -- -- 55
2020-09-13 20:00:00 21.9 2 Oeste 21 Sudeste 0 -- -- 43
2020-09-13 19:00:00 27.1 8 Sur 28 Sudeste 0 -- -- 27
2020-09-13 18:00:00 28.3 8 Sudeste 25 Sudeste 0 -- -- 28
2020-09-13 17:00:00 29.2 9 Sudeste 35 Sudeste 0 -- -- 27
2020-09-13 16:00:00 28.5 12 Sudeste 25 Sudeste 0 -- -- 28
2020-09-13 15:00:00 28.3 11 Sur 30 Sur 0 -- -- 30
2020-09-13 14:00:00 28.1 7 Nordeste 17 Nordeste 0 -- -- 33
2020-09-13 13:00:00 25.9 4 Nordeste 12 Este 0 -- -- 38
2020-09-13 12:00:00 24 4 Este 9 Este 0 -- -- 41
2020-09-13 11:00:00 20.7 2 Nordeste 5 Nordeste 0 -- -- 48
2020-09-13 10:00:00 16.7 2 Sudeste 4 Sudeste 0 -- -- 62
2020-09-13 09:00:00 10.4 0 Calma 3 Oeste 0 -- -- 87
2020-09-13 08:00:00 8.1 2 Sudoeste 4 Oeste 0 -- -- 90
2020-09-13 07:00:00 8.3 0 Calma 5 Oeste 0 -- -- 88
2020-09-13 06:00:00 8.6 2 Sudoeste 4 Oeste 0 -- -- 86
2020-09-13 05:00:00 8.9 0 Calma 5 Sudoeste 0 -- -- 83
2020-09-13 04:00:00 9.7 2 Sudoeste 4 Oeste 0 -- -- 78
2020-09-13 03:00:00 10.3 0 Calma 5 Sudoeste 0 -- -- 72
2020-09-13 02:00:00 10.6 0 Calma 4 Sur 0 -- -- 71
2020-09-13 01:00:00 11.6 4 Sudoeste 9 Norte 0 -- -- 68
2020-09-13 00:00:00 11.7 3 Sudoeste 5 Sur 0 -- -- 68
2020-09-12 23:00:00 12.6 2 Sudoeste 6 Oeste 0 -- -- 65
2020-09-12 22:00:00 14.4 0 Calma 5 Oeste 0 -- -- 63
2020-09-12 21:00:00 17.1 2 Oeste 5 Sudeste 0 -- -- 59
2020-09-12 20:00:00 21.8 2 Oeste 6 Sur 0 -- -- 48
2020-09-12 19:00:00 27.3 0 Calma 13 Sur 0 -- -- 37
2020-09-12 18:00:00 29.3 3 Sur 10 Sur 0 -- -- 28
2020-09-12 17:00:00 29.9 4 Nordeste 13 Oeste 0 -- -- 25
2020-09-12 16:00:00 30 6 Sur 17 Sudeste 0 -- -- 25
2020-09-12 15:00:00 28.6 4 Sudeste 18 Este 0 -- -- 28
2020-09-12 14:00:00 28.4 8 Nordeste 15 Sur 0 -- -- 26
2020-09-12 13:00:00 27 6 Este 14 Este 0 -- -- 30
2020-09-12 12:00:00 24.2 3 Nordeste 9 Este 0 -- -- 34
2020-09-12 11:00:00 20.6 3 Nordeste 7 Norte 0 -- -- 44
2020-09-12 10:00:00 16.4 0 Calma 3 Oeste 0 -- -- 53
2020-09-12 09:00:00 9.1 0 Calma 3 Oeste 0 -- -- 78
2020-09-12 08:00:00 6.7 2 Sudoeste 4 Sudoeste 0 -- -- 84
2020-09-12 07:00:00 7.2 2 Oeste 4 Sudoeste 0 -- -- 81
2020-09-12 06:00:00 7.2 0 Calma 4 Oeste 0 -- -- 80
2020-09-12 05:00:00 7.8 0 Calma 4 Sudoeste 0 -- -- 77
2020-09-12 04:00:00 8.5 3 Oeste 4 Sur 0 -- -- 76
2020-09-12 03:00:00 9.1 4 Sudoeste 6 Oeste 0 -- -- 72
2020-09-12 02:00:00 9.6 2 Oeste 4 Sudoeste 0 -- -- 71
2020-09-12 01:00:00 10.9 0 Calma 4 Oeste 0 -- -- 66
2020-09-12 00:00:00 11.6 2 Oeste 4 Sudoeste 0 -- -- 64
2020-09-11 23:00:00 13 2 Oeste 4 Oeste 0 -- -- 63
2020-09-11 22:00:00 15.1 0 Calma 6 Sudoeste 0 -- -- 57
2020-09-11 21:00:00 17.4 2 Oeste 5 Sur 0 -- -- 52
2020-09-11 20:00:00 21.6 0 Calma 10 Nordeste 0 -- -- 41
2020-09-11 19:00:00 26.4 4 Norte 16 Norte 0 -- -- 30
2020-09-11 18:00:00 27.7 4 Este 19 Este 0 -- -- 28
2020-09-11 17:00:00 28.8 8 Este 20 Este 0 -- -- 28
2020-09-11 16:00:00 26.7 4 Oeste 18 Norte 0 -- -- 31
2020-09-11 15:00:00 28.3 6 Noroeste 20 Oeste 0 -- -- 30
2020-09-11 14:00:00 26.1 5 Este 17 Sudeste 0 -- -- 33
2020-09-11 13:00:00 27.2 5 Sudeste 15 Sudeste 0 -- -- 29
2020-09-11 12:00:00 25.1 5 Este 10 Este 0 -- -- 32
2020-09-11 11:00:00 20.9 2 Nordeste 5 Este 0 -- -- 43
2020-09-11 10:00:00 16 0 Calma 2 Sudeste 0 -- -- 57
2020-09-11 09:00:00 8.6 0 Calma 3 Sudoeste 0 -- -- 83
2020-09-11 08:00:00 6 -- -- -- -- 0 -- -- 88
2020-09-11 07:00:00 6.3 2 Sudoeste 4 Sudoeste 0 -- -- 87
2020-09-11 06:00:00 6.6 2 Sudoeste 3 Sudoeste 0 -- -- 85
2020-09-11 05:00:00 6.9 2 Sudoeste 3 Sudoeste 0 -- -- 82
2020-09-11 04:00:00 7.6 0 Calma 5 Sudoeste 0 -- -- 80
2020-09-11 03:00:00 8.4 0 Calma 3 Sudoeste 0 -- -- 76
2020-09-11 02:00:00 8.5 0 Calma 3 Oeste 0 -- -- 75
2020-09-11 01:00:00 9.7 0 Calma 4 Oeste 0 -- -- 71
2020-09-11 00:00:00 11 0 Calma 4 Sudoeste 0 -- -- 65
2020-09-10 23:00:00 12.3 0 Calma 4 Noroeste 0 -- -- 61
2020-09-10 22:00:00 14 0 Calma 7 Sudeste 0 -- -- 58
2020-09-10 21:00:00 16.9 4 Sudoeste 9 Sur 0 -- -- 50
2020-09-10 20:00:00 21.5 3 Noroeste 14 Oeste 0 -- -- 40
2020-09-10 19:00:00 26.3 4 Norte 12 Norte 0 -- -- 28
2020-09-10 18:00:00 27.6 5 Nordeste 15 Norte 0 -- -- 28
2020-09-10 17:00:00 27.2 3 Norte 13 Este 0 -- -- 29
2020-09-10 16:00:00 27 4 Sur 13 Norte 0 -- -- 27
2020-09-10 15:00:00 27.5 5 Sudoeste 17 Este 0 -- -- 28
2020-09-10 14:00:00 26.1 6 Este 15 Este 0 -- -- 31
2020-09-10 13:00:00 24.1 5 Este 13 Este 0 -- -- 36
2020-09-10 12:00:00 22.2 3 Nordeste 10 Este 0 -- -- 40
2020-09-10 11:00:00 20.2 4 Este 8 Este 0 -- -- 46
2020-09-10 10:00:00 15.2 0 Calma 4 Sur 0 -- -- 55
2020-09-10 09:00:00 8.2 0 Calma 4 Sudoeste 0 -- -- 81
2020-09-10 08:00:00 5.6 0 Calma 5 Oeste 0 -- -- 85
2020-09-10 07:00:00 6.2 2 Oeste 4 Oeste 0 -- -- 83
2020-09-10 06:00:00 6.6 2 Sudoeste 8 Norte 0 -- -- 81
2020-09-10 05:00:00 6.6 2 Sudoeste 4 Sudoeste 0 -- -- 81
2020-09-10 04:00:00 7.3 2 Sudoeste 5 Oeste 0 -- -- 78
2020-09-10 03:00:00 7.9 2 Oeste 5 Oeste 0 -- -- 76
2020-09-10 02:00:00 9.3 0 Calma 4 Oeste 0 -- -- 71
2020-09-10 01:00:00 10.5 0 Calma 8 Sudoeste 0 -- -- 63
2020-09-10 00:00:00 11.2 2 Oeste 10 Sudoeste 0 -- -- 59
2020-09-09 23:00:00 12.8 3 Sudoeste 5 Sur 0 -- -- 54
2020-09-09 22:00:00 14.3 3 Sudoeste 14 Sur 0 -- -- 50
2020-09-09 21:00:00 16 3 Sur 13 Oeste 0 -- -- 50
2020-09-09 20:00:00 19.6 2 Noroeste 9 Noroeste 0 -- -- 43
2020-09-09 19:00:00 25 3 Este 8 Nordeste 0 -- -- 30
2020-09-09 18:00:00 23.1 0 Calma 10 Este 0 -- -- 41
2020-09-09 17:00:00 25.7 3 Sudeste 13 Nordeste 0 -- -- 26
2020-09-09 16:00:00 24.9 2 Sudoeste 9 Norte 0 -- -- 27
2020-09-09 15:00:00 25.6 7 Noroeste 20 Este 0 -- -- 26
2020-09-09 14:00:00 25.1 6 Este 15 Este 0 -- -- 27
2020-09-09 13:00:00 23.8 5 Este 13 Este 0 -- -- 27
2020-09-09 12:00:00 21.6 5 Nordeste 11 Este 0 -- -- 37
2020-09-09 11:00:00 18 3 Este 6 Este 0 -- -- 45
2020-09-09 10:00:00 14.2 2 Este 5 Este 0 -- -- 57
2020-09-09 09:00:00 6.6 0 Calma 4 Oeste 0 -- -- 82
2020-09-09 08:00:00 3.4 0 Calma 4 Oeste 0 -- -- 89
2020-09-09 07:00:00 3.8 0 Calma 4 Oeste 0 -- -- 88
2020-09-09 06:00:00 4.4 2 Sudoeste 4 Sudoeste 0 -- -- 84
2020-09-09 05:00:00 4.5 2 Sudoeste 5 Oeste 0 -- -- 83
2020-09-09 04:00:00 5.1 0 Calma 4 Oeste 0 -- -- 80
2020-09-09 03:00:00 5.9 0 Calma 4 Oeste 0 -- -- 76
2020-09-09 02:00:00 6.4 0 Calma 4 Sudoeste 0 -- -- 72
2020-09-09 01:00:00 6.6 0 Calma 5 Sur 0 -- -- 70
2020-09-09 00:00:00 7.1 3 Noroeste 8 Noroeste 0 -- -- 67
2020-09-08 23:00:00 8.2 2 Sudoeste 5 Oeste 0 -- -- 62
2020-09-08 22:00:00 9.7 0 Calma 4 Sudoeste 0 -- -- 61
2020-09-08 21:00:00 12.5 2 Sudoeste 5 Oeste 0 -- -- 50
2020-09-08 20:00:00 17.6 2 Oeste 12 Sur 0 -- -- 41
2020-09-08 19:00:00 23.4 5 Sudeste 16 Sudeste 0 -- -- 25
2020-09-08 18:00:00 24.3 4 Este 15 Este 0 -- -- 24
2020-09-08 17:00:00 23.7 7 Nordeste 17 Este 0 -- -- 26
2020-09-08 16:00:00 23.7 7 Este 18 Este 0 -- -- 25
2020-09-08 15:00:00 23.1 8 Este 17 Norte 0 -- -- 25
2020-09-08 14:00:00 21.1 6 Noroeste 20 Norte 0 -- -- 36
2020-09-08 13:00:00 19.7 8 Este 15 Este 0 -- -- 37
2020-09-08 12:00:00 17.3 4 Nordeste 10 Nordeste 0 -- -- 42
2020-09-08 11:00:00 15.4 4 Este 10 Nordeste 0 -- -- 43
2020-09-08 10:00:00 11.8 3 Este 6 Sur 0 -- -- 52
2020-09-08 09:00:00 5.4 0 Calma 4 Oeste 0 -- -- 73
2020-09-08 08:00:00 1.8 0 Calma 4 Oeste 0 -- -- 85
2020-09-08 07:00:00 1.9 0 Calma 3 Oeste 0 -- -- 86
2020-09-08 06:00:00 2.8 0 Calma 6 Sudoeste 0 -- -- 84
2020-09-08 05:00:00 2.9 2 Sudoeste 5 Sudoeste 0 -- -- 82
2020-09-08 04:00:00 4.1 0 Calma 4 Sudoeste 0 -- -- 79
2020-09-08 03:00:00 4.5 3 Sudoeste 5 Sudoeste 0 -- -- 76
2020-09-08 02:00:00 5.4 0 Calma 4 Oeste 0 -- -- 74
2020-09-08 01:00:00 6.6 2 Sudoeste 5 Oeste 0 -- -- 71
2020-09-08 00:00:00 7.8 2 Sudoeste 4 Sudoeste 0 -- -- 69
2020-09-07 23:00:00 9.1 0 Calma 6 Sur 0 -- -- 67
2020-09-07 22:00:00 11.7 2 Oeste 9 Oeste 0 -- -- 60
2020-09-07 21:00:00 15.2 3 Oeste 9 Nordeste 0 -- -- 46
2020-09-07 20:00:00 18.6 3 Noroeste 15 Noroeste 0 -- -- 39
2020-09-07 19:00:00 23.9 2 Norte 17 Este 0 -- -- 23
2020-09-07 18:00:00 24.7 4 Noroeste 17 Norte 0 -- -- 23
2020-09-07 17:00:00 24.9 5 Nordeste 18 Oeste 0 -- -- 23
2020-09-07 16:00:00 24.6 5 Este 15 Este 0 -- -- 24
2020-09-07 15:00:00 23.6 8 Este 17 Este 0 -- -- 25
2020-09-07 14:00:00 22.7 7 Nordeste 19 Este 0 -- -- 31
2020-09-07 13:00:00 21.3 8 Este 19 Este 0 -- -- 30
2020-09-07 12:00:00 20.7 10 Este 21 Este 0 -- -- 30
2020-09-07 11:00:00 19.3 7 Nordeste 19 Nordeste 0 -- -- 38
2020-09-07 10:00:00 18.1 6 Sudeste 26 Norte 0 -- -- 41
2020-09-07 09:00:00 14.8 9 Nordeste 21 Nordeste 0 -- -- 38
2020-09-07 08:00:00 6.9 3 Sudoeste 8 Noroeste 0 -- -- 64
2020-09-07 07:00:00 6.9 0 Calma 4 Norte 0 -- -- 70
2020-09-07 06:00:00 8.8 3 Sudoeste 8 Sudoeste 0 -- -- 65
2020-09-07 05:00:00 9 2 Sudoeste 5 Oeste 0 -- -- 74
2020-09-07 04:00:00 9.5 4 Sudoeste 9 Sur 0 -- -- 72
2020-09-07 03:00:00 10.9 3 Sudoeste 9 Sur 0 -- -- 64
2020-09-07 02:00:00 11.2 3 Sudoeste 8 Sur 0 -- -- 57
2020-09-07 01:00:00 12.1 3 Sudoeste 13 Sur 0 -- -- 55
2020-09-07 00:00:00 14 6 Sudoeste 16 Sur 0 -- -- 51
2020-09-06 23:00:00 17.2 3 Noroeste 19 Oeste 0 -- -- 50
2020-09-06 22:00:00 15.3 0 Calma 6 Sur 0 -- -- 61
2020-09-06 21:00:00 20 4 Oeste 15 Noroeste 0 -- -- 45
2020-09-06 20:00:00 21.8 3 Sudoeste 21 Norte 0 -- -- 45
2020-09-06 19:00:00 26.1 10 Norte 21 Nordeste 0 -- -- 35
2020-09-06 18:00:00 27.9 6 Noroeste 27 Oeste 0 -- -- 32
2020-09-06 17:00:00 28.7 6 Noroeste 21 Oeste 0 -- -- 29
2020-09-06 16:00:00 29 10 Oeste 24 Oeste 0 -- -- 27
2020-09-06 15:00:00 28.8 9 Oeste 25 Noroeste 0 -- -- 27
2020-09-06 14:00:00 27.8 4 Nordeste 13 Sudoeste 0 -- -- 28
2020-09-06 13:00:00 26.5 5 Nordeste 10 Este 0 -- -- 33
2020-09-06 12:00:00 24.1 4 Sudeste 11 Este 0 -- -- 43
2020-09-06 11:00:00 21.6 3 Este 7 Este 0 -- -- 51
2020-09-06 10:00:00 17.2 3 Sudeste 5 Sudeste 0 -- -- 66
2020-09-06 09:00:00 11.5 0 Calma 4 Sudoeste 0 -- -- 87
2020-09-06 08:00:00 8.6 2 Oeste 4 Sur 0 -- -- 91
2020-09-06 07:00:00 8.9 0 Calma 4 Sur 0 -- -- 90
2020-09-06 06:00:00 9.5 2 Sudoeste 4 Oeste 0 -- -- 89
2020-09-06 05:00:00 9.8 2 Oeste 4 Oeste 0 -- -- 86
2020-09-06 04:00:00 10 0 Calma 4 Oeste 0 -- -- 83
2020-09-06 03:00:00 11 2 Sudoeste 5 Oeste 0 -- -- 77
2020-09-06 02:00:00 12 0 Calma 5 Sudoeste 0 -- -- 72
2020-09-06 01:00:00 12.6 0 Calma 6 Sur 0 -- -- 68
2020-09-06 00:00:00 13.5 2 Sur 11 Sur 0 -- -- 65
2020-09-05 23:00:00 14.6 2 Sudoeste 6 Sur 0 -- -- 64
2020-09-05 22:00:00 16.3 2 Oeste 7 Sur 0 -- -- 64
2020-09-05 21:00:00 19.5 2 Este 5 Sur 0 -- -- 59
2020-09-05 20:00:00 22 2 Noroeste 5 Sudeste 0 -- -- 52
2020-09-05 19:00:00 25.7 0 Calma 4 Oeste 0 -- -- 45
2020-09-05 18:00:00 27.6 0 Calma 13 Sur 0 -- -- 35
2020-09-05 17:00:00 31.4 6 Sudeste 18 Sudeste 0 -- -- 25
2020-09-05 16:00:00 31.7 5 Sur 17 Sur 0 -- -- 25
2020-09-05 15:00:00 30.5 7 Este 17 Nordeste 0 -- -- 25
2020-09-05 14:00:00 28.5 5 Este 15 Nordeste 0 -- -- 30
2020-09-05 13:00:00 27.6 6 Nordeste 13 Este 0 -- -- 32
2020-09-05 12:00:00 24.9 3 Este 9 Nordeste 0 -- -- 35
2020-09-05 11:00:00 21.2 -- -- 6 Nordeste 0 -- -- 43
2020-09-05 10:00:00 17 2 Este 4 Sudeste 0 -- -- 58
2020-09-05 09:00:00 10 0 Calma 3 Sudoeste 0 -- -- 81
2020-09-05 08:00:00 7.2 0 Calma 4 Oeste 0 -- -- 87
2020-09-05 07:00:00 7.4 2 Sudoeste 4 Sudoeste 0 -- -- 87
2020-09-05 06:00:00 7.8 2 Sudoeste 4 Oeste 0 -- -- 84
2020-09-05 05:00:00 8.3 2 Sudoeste 4 Sudoeste 0 -- -- 82
2020-09-05 04:00:00 8.7 3 Sudoeste 5 Sudoeste 0 -- -- 81
2020-09-05 03:00:00 9.5 0 Calma 3 Sudoeste 0 -- -- 79
2020-09-05 02:00:00 10.3 0 Calma 5 Sudoeste 0 -- -- 77
2020-09-05 01:00:00 11.2 3 Oeste 4 Sudoeste 0 -- -- 74
2020-09-05 00:00:00 11.8 2 Sudoeste 4 Sudoeste 0 -- -- 72
2020-09-04 23:00:00 13 2 Sudoeste 4 Sudoeste 0 -- -- 69
2020-09-04 22:00:00 14.9 2 Sudoeste 6 Sudoeste 0 -- -- 62
2020-09-04 21:00:00 17.8 0 Calma 3 Noroeste 0 -- -- 58
2020-09-04 20:00:00 23.6 0 Calma 12 Sur 0 -- -- 45
2020-09-04 19:00:00 29.4 6 Sur 20 Este 0 -- -- 28
2020-09-04 18:00:00 30.5 7 Sudeste 22 Sudeste 0 -- -- 26
2020-09-04 17:00:00 30.4 7 Sudeste 19 Sudeste 0 -- -- 26
2020-09-04 16:00:00 29.8 6 Nordeste 18 Este 0 -- -- 27
2020-09-04 15:00:00 29 7 Nordeste 15 Norte 0 -- -- 29
2020-09-04 14:00:00 28.1 7 Nordeste 15 Este 0 -- -- 34
2020-09-04 13:00:00 26 4 Este 10 Nordeste 0 -- -- 40
2020-09-04 12:00:00 23.9 4 Este 10 Este 0 -- -- 42
2020-09-04 11:00:00 20.9 2 Este 6 Sudeste 0 -- -- 41
2020-09-04 10:00:00 16.5 0 Calma 4 Sudeste 0 -- -- 54
2020-09-04 09:00:00 9.6 0 Calma 3 Oeste 0 -- -- 78
2020-09-04 08:00:00 6.3 0 Calma 4 Sudoeste 0 -- -- 84
2020-09-04 07:00:00 6.5 0 Calma 5 Sudoeste 0 -- -- 83
2020-09-04 06:00:00 7.3 2 Sudoeste 4 Oeste 0 -- -- 81
2020-09-04 05:00:00 7.7 2 Sudoeste 4 Sudoeste 0 -- -- 81
2020-09-04 04:00:00 8.9 0 Calma 11 Oeste 0 -- -- 76
2020-09-04 03:00:00 8.6 0 Calma 4 Sudoeste 0 -- -- 79
2020-09-04 02:00:00 9.6 0 Calma 4 Oeste 0 -- -- 74
2020-09-04 01:00:00 10.7 2 Sudoeste 4 Oeste 0 -- -- 71
2020-09-04 00:00:00 11.5 0 Calma 4 Sudoeste 0 -- -- 68
2020-09-03 23:00:00 12 0 Calma 4 Oeste 0 -- -- 65
2020-09-03 22:00:00 14 0 Calma 4 Sur 0 -- -- 57
2020-09-03 21:00:00 17.5 2 Sudoeste 4 Sudoeste 0 -- -- 52
2020-09-03 20:00:00 23.9 0 Calma 14 Sur 0 -- -- 39
2020-09-03 19:00:00 28.8 5 Sudeste 14 Este 0 -- -- 28
2020-09-03 18:00:00 29.3 7 Sudeste 18 Sur 0 -- -- 27
2020-09-03 17:00:00 29.4 6 Nordeste 18 Nordeste 0 -- -- 24
2020-09-03 16:00:00 28.9 6 Este 18 Este 0 -- -- 22
2020-09-03 15:00:00 28.9 7 Sudeste 15 Este 0 -- -- 22
2020-09-03 14:00:00 27.4 5 Norte 16 Nordeste 0 -- -- 24
2020-09-03 13:00:00 26.1 4 Nordeste 15 Nordeste 0 -- -- 28
2020-09-03 12:00:00 23.7 3 Este 9 Este 0 -- -- 32
2020-09-03 11:00:00 20.3 3 Este 6 Este 0 -- -- 40
2020-09-03 10:00:00 16.1 0 Calma 4 Sur 0 -- -- 52
2020-09-03 09:00:00 8.6 0 Calma 4 Oeste 0 -- -- 79
2020-09-03 08:00:00 4.5 0 Calma 3 Sudoeste 0 -- -- 88
2020-09-03 07:00:00 4.9 3 Sudoeste 4 Sudoeste 0 -- -- 84
2020-09-03 06:00:00 5.7 3 Sudoeste 5 Oeste 0 -- -- 82
2020-09-03 05:00:00 6.2 2 Oeste 6 Sudoeste 0 -- -- 79
2020-09-03 04:00:00 6.1 2 Sudoeste 4 Sudoeste 0 -- -- 78
2020-09-03 03:00:00 6.9 2 Sudoeste 4 Sudoeste 0 -- -- 75
2020-09-03 02:00:00 7.4 2 Oeste 4 Sudoeste 0 -- -- 73
2020-09-03 01:00:00 8.4 2 Sudoeste 4 Sudoeste 0 -- -- 68
2020-09-03 00:00:00 10 3 Sudoeste 4 Oeste 0 -- -- 63
2020-09-02 23:00:00 11.8 2 Oeste 6 Sur 0 -- -- 58
2020-09-02 22:00:00 14.3 3 Sudoeste 9 Oeste 0 -- -- 51
2020-09-02 21:00:00 17.8 3 Sur 15 Norte 0 -- -- 43
2020-09-02 20:00:00 21.4 4 Oeste 18 Oeste 0 -- -- 33
2020-09-02 19:00:00 25.5 5 Noroeste 17 Oeste 0 -- -- 28
2020-09-02 18:00:00 26.7 5 Noroeste 21 Oeste 0 -- -- 25
2020-09-02 17:00:00 26.7 5 Oeste 16 Este 0 -- -- 26
2020-09-02 16:00:00 26.2 4 Norte 16 Este 0 -- -- 26
2020-09-02 15:00:00 25.9 5 Sur 20 Sudeste 0 -- -- 25
2020-09-02 14:00:00 24.3 5 Nordeste 17 Nordeste 0 -- -- 27
2020-09-02 13:00:00 23.9 6 Este 19 Este 0 -- -- 29
2020-09-02 12:00:00 22.2 5 Nordeste 12 Este 0 -- -- 32
2020-09-02 11:00:00 18.7 2 Sudeste 5 Este 0 -- -- 40
2020-09-02 10:00:00 14.4 2 Sudeste 4 Sudeste 0 -- -- 50
2020-09-02 09:00:00 6.9 0 Calma 3 Oeste 0 -- -- 77
2020-09-02 08:00:00 3.6 2 Sudoeste 4 Sudoeste 0 -- -- 85
2020-09-02 07:00:00 3.9 2 Oeste 4 Oeste 0 -- -- 83
2020-09-02 06:00:00 4.1 0 Calma 4 Sudoeste 0 -- -- 82
2020-09-02 05:00:00 4.2 0 Calma 4 Sudoeste 0 -- -- 80
2020-09-02 04:00:00 5.1 2 Oeste 4 Oeste 0 -- -- 76
2020-09-02 03:00:00 6.1 3 Sudoeste 4 Sudoeste 0 -- -- 71
2020-09-02 02:00:00 7.2 2 Oeste 5 Sudoeste 0 -- -- 67
2020-09-02 01:00:00 7.9 3 Sudoeste 6 Noroeste 0 -- -- 61
2020-09-02 00:00:00 8.6 2 Sudoeste 7 Oeste 0 -- -- 59
2020-09-01 23:00:00 10.3 2 Oeste 5 Sudoeste 0 -- -- 54
2020-09-01 22:00:00 12.5 2 Sudoeste 6 Sur 0 -- -- 48
2020-09-01 21:00:00 16 2 Sur 6 Oeste 0 -- -- 39
2020-09-01 20:00:00 20.8 2 Oeste 11 Oeste 0 -- -- 31
2020-09-01 19:00:00 23.2 3 Norte 14 Noroeste 0 -- -- 24
2020-09-01 18:00:00 24.9 4 Noroeste 18 Noroeste 0 -- -- 17
2020-09-01 17:00:00 24.2 6 Oeste 15 Oeste 0 -- -- 16
2020-09-01 16:00:00 24.3 4 Oeste 18 Noroeste 0 -- -- 17
2020-09-01 15:00:00 22.8 8 Oeste 20 Oeste 0 -- -- 18
2020-09-01 14:00:00 22.9 5 Noroeste 17 Oeste 0 -- -- 19
2020-09-01 13:00:00 20.2 2 Este 5 Norte 0 -- -- 36
2020-09-01 12:00:00 18.7 0 Calma 5 Este 0 -- -- 34
2020-09-01 11:00:00 16 0 Calma 5 Oeste 0 -- -- 49
2020-09-01 10:00:00 11.9 0 Calma 5 Sur 0 -- -- 60
2020-09-01 09:00:00 8.4 0 Calma 3 Sur 0 -- -- 73
2020-09-01 08:00:00 7.5 2 Sudoeste 4 Sur 0 -- -- 71
2020-09-01 07:00:00 6.9 0 Calma 4 Sudoeste 0 -- -- 73
2020-09-01 06:00:00 6.6 0 Calma 4 Sudoeste 0 -- -- 72
2020-09-01 05:00:00 6.9 0 Calma 5 Sur 0 -- -- 69
2020-09-01 04:00:00 7 0 Calma 4 Sudoeste 0 -- -- 69
2020-09-01 03:00:00 7 0 Calma 4 Sur 0 -- -- 67
2020-09-01 02:00:00 6.8 2 Sudoeste 4 Sudoeste 0 -- -- 65
2020-09-01 01:00:00 7.2 2 Sudoeste 5 Sudoeste 0 -- -- 63
2020-09-01 00:00:00 8.1 0 Calma 7 Oeste 0 -- -- 60
2020-08-31 23:00:00 8.6 2 Sudoeste 6 Oeste 0 -- -- 58
2020-08-31 22:00:00 10.9 4 Sudoeste 13 Sudoeste 0 -- -- 51
2020-08-31 21:00:00 13.8 3 Oeste 11 Oeste 0 -- -- 43
2020-08-31 20:00:00 18.9 4 Oeste 15 Oeste 0 -- -- 35
2020-08-31 19:00:00 21.8 6 Oeste 16 Oeste 0 -- -- 26
2020-08-31 18:00:00 22.6 5 Oeste 19 Oeste 0 -- -- 25
2020-08-31 17:00:00 23.3 6 Noroeste 16 Noroeste 0 -- -- 25
2020-08-31 16:00:00 22.6 7 Oeste 22 Oeste 0 -- -- 27
2020-08-31 15:00:00 22.7 4 Norte 17 Este 0 -- -- 26
2020-08-31 14:00:00 21.9 5 Nordeste 13 Nordeste 0 -- -- 26
2020-08-31 13:00:00 20.6 5 Nordeste 14 Este 0 -- -- 29
2020-08-31 12:00:00 18 4 Nordeste 12 Este 0 -- -- 35
2020-08-31 11:00:00 14.9 4 Este 9 Este 0 -- -- 37
2020-08-31 10:00:00 10.4 2 Nordeste 4 Nordeste 0 -- -- 53
2020-08-31 09:00:00 4.2 0 Calma 3 Oeste 0 -- -- 82
2020-08-31 08:00:00 -0.4 0 Calma 3 Oeste 0 -- -- 90
2020-08-31 07:00:00 -0.2 0 Calma 3 Sudoeste 0 -- -- 91
2020-08-31 06:00:00 0.1 0 Calma 3 Sudoeste 0 -- -- 90
2020-08-31 05:00:00 0.5 0 Calma 3 Noroeste 0 -- -- 90
2020-08-31 04:00:00 0.8 2 Sudoeste 5 Noroeste 0 -- -- 89
2020-08-31 03:00:00 1.5 0 Calma 6 Sudoeste 0 -- -- 86
2020-08-31 02:00:00 1.7 2 Sudoeste 4 Sudoeste 0 -- -- 85
2020-08-31 01:00:00 2.8 0 Calma 3 Oeste 0 -- -- 84
2020-08-31 00:00:00 3.8 0 Calma 3 Sudoeste 0 -- -- 79
2020-08-30 23:00:00 5 0 Calma 4 Oeste 0 -- -- 77
2020-08-30 22:00:00 6.8 2 Sudoeste 7 Sudoeste 0 -- -- 72
2020-08-30 21:00:00 9.3 2 Sudoeste 6 Norte 0 -- -- 64
2020-08-30 20:00:00 13.4 0 Calma 18 Norte 0 -- -- 50
2020-08-30 19:00:00 15 6 Nordeste 19 Nordeste 0 -- -- 41
2020-08-30 18:00:00 16 4 Noroeste 22 Nordeste 0 -- -- 40
2020-08-30 17:00:00 16.2 6 Nordeste 23 Este 0 -- -- 38
2020-08-30 16:00:00 15.9 5 Este 13 Este 0 -- -- 42
2020-08-30 15:00:00 16.2 8 Este 26 Nordeste 0 -- -- 42
2020-08-30 14:00:00 17 6 Sudeste 19 Nordeste 0 -- -- 42
2020-08-30 13:00:00 15.1 8 Nordeste 18 Este 0 -- -- 48
2020-08-30 12:00:00 13.7 7 Nordeste 19 Sudeste 0 -- -- 53
2020-08-30 11:00:00 12.7 6 Este 13 Nordeste 0 -- -- 60
2020-08-30 10:00:00 10 4 Sudeste 7 Sur 0 -- -- 72
2020-08-30 09:00:00 4.2 0 Calma 3 Sudoeste 0 -- -- 97
2020-08-30 08:00:00 1.3 0 Calma 4 Sudoeste 0 -- -- 95
2020-08-30 07:00:00 1.2 0 Calma 5 Sudoeste 0 -- -- 94
2020-08-30 06:00:00 1.7 0 Calma 4 Sudoeste 0 -- -- 94
2020-08-30 05:00:00 2.2 0 Calma 4 Sudoeste 0 -- -- 93
2020-08-30 04:00:00 3.1 0 Calma 5 Sur 0 -- -- 92
2020-08-30 03:00:00 4.2 3 Sudoeste 8 Sur 0 -- -- 91
2020-08-30 02:00:00 5 2 Sur 11 Sur 0 -- -- 91
2020-08-30 01:00:00 5.2 3 Sur 7 Sur 0 -- -- 92
2020-08-30 00:00:00 6.8 0 Calma 7 Sur 0 -- -- 89
2020-08-29 23:00:00 8.1 0 Calma 6 Sudoeste 0 -- -- 88
2020-08-29 22:00:00 9.6 3 Sudeste 10 Norte 0 -- -- 81
2020-08-29 21:00:00 10.7 0 Calma 19 Nordeste 0 -- -- 78
2020-08-29 20:00:00 13.3 8 Nordeste 21 Este 0 -- -- 62
2020-08-29 19:00:00 12.9 3 Noroeste 14 Este 0.4 -- -- 76
2020-08-29 18:00:00 12.4 4 Sudoeste 29 Oeste 1 -- -- 83
2020-08-29 17:00:00 18.5 7 Noroeste 27 Nordeste 0 -- -- 37
2020-08-29 16:00:00 16.2 6 Norte 30 Norte 0 -- -- 44
2020-08-29 15:00:00 17.1 7 Noroeste 37 Noroeste 0 -- -- 41
2020-08-29 14:00:00 16.6 8 Noroeste 26 Norte 0 -- -- 45
2020-08-29 13:00:00 15.3 7 Noroeste 23 Nordeste 0 -- -- 48
2020-08-29 12:00:00 12.9 5 Nordeste 23 Noroeste 0 -- -- 52
2020-08-29 11:00:00 11.7 8 Oeste 22 Noroeste 0 -- -- 58
2020-08-29 10:00:00 11.9 9 Oeste 23 Oeste 0 -- -- 57
2020-08-29 09:00:00 10.1 4 Este 10 Norte 0 -- -- 63
2020-08-29 08:00:00 6.6 0 Calma 10 Norte 0 -- -- 77
2020-08-29 07:00:00 8.6 3 Noroeste 12 Noroeste 0 -- -- 67
2020-08-29 06:00:00 8.9 2 Oeste 14 Sudoeste 0 -- -- 69
2020-08-29 05:00:00 10.8 2 Noroeste 17 Sudoeste 0 -- -- 66
2020-08-29 04:00:00 11.5 3 Sudoeste 15 Norte 0 -- -- 64
2020-08-29 03:00:00 12.7 5 Sur 22 Oeste 0 -- -- 65
2020-08-29 02:00:00 13.7 5 Sudoeste 18 Oeste 0 -- -- 65
2020-08-29 01:00:00 14.2 5 Sur 20 Oeste 0 -- -- 56
2020-08-29 00:00:00 15.3 3 Sur 14 Oeste 0 -- -- 49
2020-08-28 23:00:00 17.1 6 Sudoeste 21 Sudoeste 0 -- -- 40
2020-08-28 22:00:00 17.3 5 Sur 13 Sudoeste 0 -- -- 31
2020-08-28 21:00:00 19.2 3 Sur 19 Noroeste 0 -- -- 28
2020-08-28 20:00:00 21.6 4 Oeste 24 Oeste 0 -- -- 24
2020-08-28 19:00:00 24.7 6 Oeste 26 Oeste 0 -- -- 18
2020-08-28 18:00:00 25.1 8 Oeste 36 Noroeste 0 -- -- 23
2020-08-28 17:00:00 24.8 15 Oeste 38 Noroeste 0 -- -- 30
2020-08-28 16:00:00 25.5 8 Oeste 38 Oeste 0 -- -- 38
2020-08-28 15:00:00 25 15 Oeste 41 Noroeste 0 -- -- 35
2020-08-28 14:00:00 24.6 14 Noroeste 37 Noroeste 0 -- -- 44
2020-08-28 13:00:00 24.9 13 Oeste 36 Noroeste 0 -- -- 40
2020-08-28 12:00:00 25.1 12 Oeste 28 Sudoeste 0 -- -- 36
2020-08-28 11:00:00 23 9 Oeste 24 Sudoeste 0 -- -- 35
2020-08-28 10:00:00 21.3 3 Sur 8 Sur 0 -- -- 55
2020-08-28 09:00:00 17.8 2 Oeste 11 Sudoeste 0 -- -- 69
2020-08-28 08:00:00 16.3 0 Calma 15 Sudoeste 0 -- -- 70
2020-08-28 07:00:00 16.1 0 Calma 16 Sudoeste 0 -- -- 70
2020-08-28 06:00:00 18.7 4 Sudoeste 23 Sudoeste 0 -- -- 60
2020-08-28 05:00:00 18.8 5 Sudoeste 21 Sur 0 -- -- 51
2020-08-28 04:00:00 16.2 4 Sur 9 Nordeste 0 -- -- 59
2020-08-28 03:00:00 19.1 4 Sudoeste 18 Sur 0 -- -- 49
2020-08-28 02:00:00 20.8 5 Sur 18 Sudoeste 0 -- -- 44
2020-08-28 01:00:00 22.7 8 Sudoeste 29 Noroeste 0 -- -- 38
2020-08-28 00:00:00 18.4 4 Sudoeste 12 Sur 0 -- -- 50
2020-08-27 23:00:00 18.7 3 Sudoeste 8 Oeste 0 -- -- 49
2020-08-27 22:00:00 19.9 3 Sudoeste 8 Sur 0 -- -- 46
2020-08-27 21:00:00 22.8 3 Oeste 10 Oeste 0 -- -- 37
2020-08-27 20:00:00 27.9 3 Sudoeste 15 Sudoeste 0 -- -- 31
2020-08-27 19:00:00 30.1 5 Oeste 22 Oeste 0 -- -- 23
2020-08-27 18:00:00 31.5 8 Oeste 18 Noroeste 0 -- -- 20
2020-08-27 17:00:00 31.8 5 Norte 30 Oeste 0 -- -- 23
2020-08-27 16:00:00 31.9 8 Noroeste 19 Oeste 0 -- -- 22
2020-08-27 15:00:00 31.8 7 Oeste 21 Sudoeste 0 -- -- 20
2020-08-27 14:00:00 31.2 8 Oeste 25 Noroeste 0 -- -- 24
2020-08-27 13:00:00 30.1 9 Norte 24 Norte 0 -- -- 29
2020-08-27 12:00:00 29.6 7 Nordeste 21 Norte 0 -- -- 28
2020-08-27 11:00:00 26.9 4 Este 8 Este 0 -- -- 37
2020-08-27 10:00:00 22.5 2 Sudeste 4 Oeste 0 -- -- 49
2020-08-27 09:00:00 15.9 0 Calma 5 Oeste 0 -- -- 67
2020-08-27 08:00:00 11.9 2 Sudoeste 5 Oeste 0 -- -- 71
2020-08-27 07:00:00 12.1 0 Calma 5 Oeste 0 -- -- 71
2020-08-27 06:00:00 12.5 2 Sudoeste 7 Sur 0 -- -- 68
2020-08-27 05:00:00 13.4 2 Oeste 8 Oeste 0 -- -- 65
2020-08-27 04:00:00 13.9 3 Oeste 7 Noroeste 0 -- -- 60
2020-08-27 03:00:00 15.4 3 Sudoeste 12 Oeste 0 -- -- 55
2020-08-27 02:00:00 15.4 4 Sudoeste 10 Sudoeste 0 -- -- 55
2020-08-27 01:00:00 15.2 0 Calma 6 Sudoeste 0 -- -- 58
2020-08-27 00:00:00 16.7 2 Oeste 8 Sudoeste 0 -- -- 54
2020-08-26 23:00:00 18.5 2 Sudoeste 13 Noroeste 0 -- -- 49
2020-08-26 22:00:00 20.3 2 Sur 8 Sudeste 0 -- -- 48
2020-08-26 21:00:00 24.1 2 Este 10 Oeste 0 -- -- 38
2020-08-26 20:00:00 28.8 4 Oeste 19 Oeste 0 -- -- 33
2020-08-26 19:00:00 32.2 4 Oeste 19 Noroeste 0 -- -- 25
2020-08-26 18:00:00 33.4 5 Oeste 19 Oeste 0 -- -- 23
2020-08-26 17:00:00 33.7 4 Este 14 Este 0 -- -- 23
2020-08-26 16:00:00 33.4 6 Norte 22 Oeste 0 -- -- 22
2020-08-26 15:00:00 32.9 4 Noroeste 19 Noroeste 0 -- -- 23
2020-08-26 14:00:00 31.6 5 Norte 24 Noroeste 0 -- -- 25
2020-08-26 13:00:00 30.2 9 Noroeste 26 Noroeste 0 -- -- 25
2020-08-26 12:00:00 29.6 10 Oeste 23 Oeste 0 -- -- 24
2020-08-26 11:00:00 25.2 3 Este 9 Este 0 -- -- 43
2020-08-26 10:00:00 20.8 0 Calma 6 Este 0 -- -- 47
2020-08-26 09:00:00 13.9 0 Calma 6 Sur 0 -- -- 70
2020-08-26 08:00:00 9.5 2 Sudoeste 4 Sudoeste 0 -- -- 78
2020-08-26 07:00:00 9.8 0 Calma 4 Oeste 0 -- -- 77
2020-08-26 06:00:00 10.5 0 Calma 5 Sudoeste 0 -- -- 74
2020-08-26 05:00:00 11.2 0 Calma 5 Sudoeste 0 -- -- 72
2020-08-26 04:00:00 11.9 2 Sudoeste 6 Sudoeste 0 -- -- 68
2020-08-26 03:00:00 12.5 2 Oeste 5 Sudoeste 0 -- -- 66
2020-08-26 02:00:00 14 2 Oeste 5 Sudoeste 0 -- -- 61
2020-08-26 01:00:00 14.2 0 Calma 5 Sudoeste 0 -- -- 62
2020-08-26 00:00:00 15.4 3 Oeste 5 Oeste 0 -- -- 58
2020-08-25 23:00:00 16.5 3 Oeste 6 Sudeste 0 -- -- 54
2020-08-25 22:00:00 18.4 2 Sudoeste 8 Oeste 0 -- -- 51
2020-08-25 21:00:00 21.3 2 Sudoeste 6 Sur 0 -- -- 49
2020-08-25 20:00:00 28.3 2 Oeste 12 Sudoeste 0 -- -- 36
2020-08-25 19:00:00 32.5 4 Oeste 11 Oeste 0 -- -- 25
2020-08-25 18:00:00 33.1 2 Noroeste 14 Oeste 0 -- -- 23
2020-08-25 17:00:00 32.9 6 Noroeste 16 Este 0 -- -- 22
2020-08-25 16:00:00 32.6 5 Nordeste 19 Norte 0 -- -- 22
2020-08-25 15:00:00 32.6 6 Sudeste 19 Norte 0 -- -- 22
2020-08-25 14:00:00 31.2 4 Sur 17 Noroeste 0 -- -- 25
2020-08-25 13:00:00 30 9 Noroeste 20 Oeste 0 -- -- 25
2020-08-25 12:00:00 27.3 6 Este 10 Este 0 -- -- 34
2020-08-25 11:00:00 24.3 4 Este 8 Este 0 -- -- 39
2020-08-25 10:00:00 20.5 0 Calma 5 Sudeste 0 -- -- 56
2020-08-25 09:00:00 13.2 0 Calma 6 Sur 0 -- -- 79
2020-08-25 08:00:00 9.1 0 Calma 4 Sur 0 -- -- 88
2020-08-25 07:00:00 9.5 0 Calma 6 Sudoeste 0 -- -- 85
2020-08-25 06:00:00 9.5 2 Sudoeste 5 Sudoeste 0 -- -- 84
2020-08-25 05:00:00 9.8 0 Calma 5 Oeste 0 -- -- 80
2020-08-25 04:00:00 10.2 0 Calma 5 Oeste 0 -- -- 76
2020-08-25 03:00:00 10.9 0 Calma 5 Sudoeste 0 -- -- 73
2020-08-25 02:00:00 11.2 0 Calma 4 Oeste 0 -- -- 69
2020-08-25 01:00:00 12 0 Calma 4 Sudoeste 0 -- -- 65
2020-08-25 00:00:00 13.3 2 Sudoeste 6 Sudoeste 0 -- -- 60
2020-08-24 23:00:00 14.5 0 Calma 5 Oeste 0 -- -- 55
2020-08-24 22:00:00 16.6 2 Oeste 6 Sur 0 -- -- 51
2020-08-24 21:00:00 20.4 2 Sur 11 Norte 0 -- -- 41
2020-08-24 20:00:00 27.2 3 Noroeste 12 Oeste 0 -- -- 25
2020-08-24 19:00:00 29.7 3 Noroeste 18 Oeste 0 -- -- 23
2020-08-24 18:00:00 30.4 6 Noroeste 19 Oeste 0 -- -- 24
2020-08-24 17:00:00 30.3 7 Norte 17 Noroeste 0 -- -- 24
2020-08-24 16:00:00 30.4 5 Oeste 24 Oeste 0 -- -- 25
2020-08-24 15:00:00 29.9 6 Noroeste 20 Norte 0 -- -- 24
2020-08-24 14:00:00 29.1 3 Sudeste 13 Este 0 -- -- 27
2020-08-24 13:00:00 27.6 6 Este 15 Nordeste 0 -- -- 27
2020-08-24 12:00:00 25.9 4 Nordeste 11 Este 0 -- -- 29
2020-08-24 11:00:00 22.7 4 Este 9 Este 0 -- -- 38
2020-08-24 10:00:00 19 0 Calma 3 Este 0 -- -- 47
2020-08-24 09:00:00 11.4 0 Calma 4 Oeste 0 -- -- 73
2020-08-24 08:00:00 6.7 2 Sudoeste 4 Oeste 0 -- -- 82
2020-08-24 07:00:00 7.2 2 Sudoeste 6 Oeste 0 -- -- 79
2020-08-24 06:00:00 7.7 0 Calma 5 Oeste 0 -- -- 78
2020-08-24 05:00:00 8.1 2 Oeste 5 Sudoeste 0 -- -- 75
2020-08-24 04:00:00 9.1 0 Calma 6 Sudoeste 0 -- -- 71
2020-08-24 03:00:00 9.4 0 Calma 6 Noroeste 0 -- -- 72
2020-08-24 02:00:00 10.1 2 Sudoeste 6 Norte 0 -- -- 67
2020-08-24 01:00:00 10.9 2 Oeste 5 Sudoeste 0 -- -- 64
2020-08-24 00:00:00 12 3 Sudoeste 5 Sudoeste 0 -- -- 60
2020-08-23 23:00:00 14.2 2 Oeste 9 Sudoeste 0 -- -- 55
2020-08-23 22:00:00 16.8 3 Sudoeste 8 Este 0 -- -- 48
2020-08-23 21:00:00 20.4 3 Sudoeste 9 Oeste 0 -- -- 39
2020-08-23 20:00:00 26 6 Noroeste 20 Oeste 0 -- -- 27
2020-08-23 19:00:00 28.3 6 Oeste 17 Oeste 0 -- -- 25
2020-08-23 18:00:00 29.2 7 Noroeste 18 Noroeste 0 -- -- 23
2020-08-23 17:00:00 29.7 4 Norte 17 Norte 0 -- -- 23
2020-08-23 16:00:00 29.3 6 Noroeste 15 Oeste 0 -- -- 24
2020-08-23 15:00:00 28.4 6 Norte 14 Norte 0 -- -- 22
2020-08-23 14:00:00 27.6 5 Oeste 14 Sudeste 0 -- -- 23
2020-08-23 13:00:00 27.1 6 Sudeste 14 Este 0 -- -- 24
2020-08-23 12:00:00 25.2 5 Este 13 Nordeste 0 -- -- 27
2020-08-23 11:00:00 22.3 4 Este 8 Este 0 -- -- 32
2020-08-23 10:00:00 18.4 0 Calma 4 Sur 0 -- -- 45
2020-08-23 09:00:00 12 0 Calma 5 Noroeste 0 -- -- 67
2020-08-23 08:00:00 7.7 0 Calma 6 Oeste 0 -- -- 74
2020-08-23 07:00:00 8.3 0 Calma 5 Sudoeste 0 -- -- 74
2020-08-23 06:00:00 9.5 0 Calma 10 Noroeste 0 -- -- 68
2020-08-23 05:00:00 10.4 4 Sudoeste 11 Sudoeste 0 -- -- 61
2020-08-23 04:00:00 9.7 2 Sudoeste 6 Oeste 0 -- -- 66
2020-08-23 03:00:00 9.7 3 Oeste 5 Oeste 0 -- -- 64
2020-08-23 02:00:00 11 2 Sudoeste 9 Sudoeste 0 -- -- 59
2020-08-23 01:00:00 13 3 Sudoeste 10 Sudoeste 0 -- -- 52
2020-08-23 00:00:00 13.7 3 Oeste 14 Sudoeste 0 -- -- 49
2020-08-22 23:00:00 14.5 4 Sudoeste 13 Sur 0 -- -- 45
2020-08-22 22:00:00 16.3 3 Sudoeste 8 Sudoeste 0 -- -- 41
2020-08-22 21:00:00 21.3 4 Noroeste 14 Norte 0 -- -- 29
2020-08-22 20:00:00 26 5 Noroeste 21 Oeste 0 -- -- 20
2020-08-22 19:00:00 27.7 5 Oeste 23 Noroeste 0 -- -- 21
2020-08-22 18:00:00 28.1 9 Oeste 24 Oeste 0 -- -- 25
2020-08-22 17:00:00 28.3 10 Noroeste 26 Oeste 0 -- -- 28
2020-08-22 16:00:00 29.1 6 Noroeste 24 Noroeste 0 -- -- 28
2020-08-22 15:00:00 28 9 Noroeste 27 Noroeste 0 -- -- 32
2020-08-22 14:00:00 27.9 6 Nordeste 19 Norte 0 -- -- 33
2020-08-22 13:00:00 26.2 5 Este 13 Este 0 -- -- 40
2020-08-22 12:00:00 23.9 5 Este 9 Este 0 -- -- 51
2020-08-22 11:00:00 21.2 3 Sudeste 6 Sudeste 0 -- -- 56
2020-08-22 10:00:00 17.5 3 Sudeste 5 Sudeste 0 -- -- 64
2020-08-22 09:00:00 11.6 0 Calma 4 Sur 0 -- -- 92
2020-08-22 08:00:00 7.6 0 Calma 4 Sudoeste 0 -- -- 94
2020-08-22 07:00:00 8.4 2 Oeste 4 Sudoeste 0 -- -- 94
2020-08-22 06:00:00 9.1 0 Calma 4 Oeste 0 -- -- 94
2020-08-22 05:00:00 10 0 Calma 3 Oeste 0 -- -- 93
2020-08-22 04:00:00 11.3 0 Calma 4 Oeste 0 -- -- 91
2020-08-22 03:00:00 13.2 0 Calma 6 Oeste 0 -- -- 87
2020-08-22 02:00:00 15.4 4 Noroeste 12 Oeste 0 -- -- 83
2020-08-22 01:00:00 14.8 3 Norte 8 Sudeste 0 -- -- 89
2020-08-22 00:00:00 16.3 3 Noroeste 17 Oeste 0 -- -- 84
2020-08-21 23:00:00 17.4 2 Sur 8 Sur 0 -- -- 82
2020-08-21 22:00:00 19.9 2 Sudoeste 17 Oeste 0 -- -- 71
2020-08-21 21:00:00 20 4 Oeste 18 Noroeste 0 -- -- 75
2020-08-21 20:00:00 20.6 4 Sudeste 23 Noroeste 0 -- -- 74
2020-08-21 19:00:00 22 12 Oeste 28 Sudoeste 0 -- -- 70
2020-08-21 18:00:00 22.5 6 Oeste 32 Oeste 0.2 -- -- 70
2020-08-21 17:00:00 24.2 11 Oeste 30 Oeste 0 -- -- 59
2020-08-21 16:00:00 29.1 7 Sudoeste 24 Oeste 0 -- -- 39
2020-08-21 15:00:00 28.7 6 Sudoeste 21 Oeste 0 -- -- 39
2020-08-21 14:00:00 28.6 7 Sur 23 Sur 0 -- -- 39
2020-08-21 13:00:00 28.3 6 Sudoeste 22 Sur 0 -- -- 38
2020-08-21 12:00:00 26.8 4 Nordeste 14 Este 0 -- -- 37
2020-08-21 11:00:00 22.2 5 Nordeste 11 Nordeste 0 -- -- 45
2020-08-21 10:00:00 18.7 2 Sudeste 8 Sudeste 0 -- -- 48
2020-08-21 09:00:00 13.9 0 Calma 6 Este 0 -- -- 71
2020-08-21 08:00:00 9.4 0 Calma 6 Sur 0 -- -- 82
2020-08-21 07:00:00 9.8 3 Sudoeste 7 Sudoeste 0 -- -- 80
2020-08-21 06:00:00 10.8 0 Calma 8 Oeste 0 -- -- 75
2020-08-21 05:00:00 11.6 0 Calma 5 Sudoeste 0 -- -- 72
2020-08-21 04:00:00 12.3 0 Calma 5 Oeste 0 -- -- 66
2020-08-21 03:00:00 12.8 0 Calma 5 Oeste 0 -- -- 62
2020-08-21 02:00:00 13.4 2 Sur 15 Oeste 0 -- -- 65
2020-08-21 01:00:00 12.4 2 Sur 5 Sudoeste 0 -- -- 57
2020-08-21 00:00:00 13.4 0 Calma 5 Sur 0 -- -- 54